sensor_id;sensor_type;location;lat;lon;timestamp;temperature;humidity
1179;DHT22;578;48.408;10.004;2023-02-15T00:00:07;0.40;99.90
1179;DHT22;578;48.408;10.004;2023-02-15T00:02:35;0.40;99.90
1179;DHT22;578;48.408;10.004;2023-02-15T00:05:02;0.30;99.90
1179;DHT22;578;48.408;10.004;2023-02-15T00:07:29;0.30;99.90
1179;DHT22;578;48.408;10.004;2023-02-15T00:09:56;0.30;99.90
1179;DHT22;578;48.408;10.004;2023-02-15T00:12:22;0.30;99.90
1179;DHT22;578;48.408;10.004;2023-02-15T00:14:51;0.30;99.90
1179;DHT22;578;48.408;10.004;2023-02-15T00:17:17;0.20;99.90
1179;DHT22;578;48.408;10.004;2023-02-15T00:19:44;0.20;99.90
1179;DHT22;578;48.408;10.004;2023-02-15T00:22:11;0.00;99.90
1179;DHT22;578;48.408;10.004;2023-02-15T00:24:37;0.10;99.90
1179;DHT22;578;48.408;10.004;2023-02-15T00:27:04;0.10;99.90
1179;DHT22;578;48.408;10.004;2023-02-15T00:29:31;0.10;99.90
1179;DHT22;578;48.408;10.004;2023-02-15T00:31:59;0.10;99.90
1179;DHT22;578;48.408;10.004;2023-02-15T00:34:27;0.10;99.90
1179;DHT22;578;48.408;10.004;2023-02-15T00:36:54;0.10;99.90
1179;DHT22;578;48.408;10.004;2023-02-15T00:39:21;0.10;99.90
1179;DHT22;578;48.408;10.004;2023-02-15T00:41:49;0.20;99.90
1179;DHT22;578;48.408;10.004;2023-02-15T00:44:16;0.10;99.90
1179;DHT22;578;48.408;10.004;2023-02-15T00:46:42;0.10;99.90
1179;DHT22;578;48.408;10.004;2023-02-15T00:49:10;0.00;99.90
1179;DHT22;578;48.408;10.004;2023-02-15T00:51:38;0.00;99.90
1179;DHT22;578;48.408;10.004;2023-02-15T00:54:04;0.00;99.90
1179;DHT22;578;48.408;10.004;2023-02-15T00:56:31;0.10;99.90
1179;DHT22;578;48.408;10.004;2023-02-15T00:58:58;0.10;99.90
1179;DHT22;578;48.408;10.004;2023-02-15T01:01:25;0.10;99.90
1179;DHT22;578;48.408;10.004;2023-02-15T01:03:52;0.00;99.90
1179;DHT22;578;48.408;10.004;2023-02-15T01:06:20;0.10;99.90
1179;DHT22;578;48.408;10.004;2023-02-15T01:08:47;0.10;99.90
1179;DHT22;578;48.408;10.004;2023-02-15T01:11:16;0.20;99.90
1179;DHT22;578;48.408;10.004;2023-02-15T01:13:47;0.10;99.90
1179;DHT22;578;48.408;10.004;2023-02-15T01:16:14;0.10;99.90
1179;DHT22;578;48.408;10.004;2023-02-15T01:18:41;0.00;99.90
1179;DHT22;578;48.408;10.004;2023-02-15T01:21:12;0.00;99.90
1179;DHT22;578;48.408;10.004;2023-02-15T01:23:42;-0.10;99.90
1179;DHT22;578;48.408;10.004;2023-02-15T01:26:09;-0.20;99.90
1179;DHT22;578;48.408;10.004;2023-02-15T01:28:37;-0.10;99.90
1179;DHT22;578;48.408;10.004;2023-02-15T01:31:08;0.00;99.90
1179;DHT22;578;48.408;10.004;2023-02-15T01:33:35;0.00;99.90
1179;DHT22;578;48.408;10.004;2023-02-15T01:36:02;-0.10;99.90
1179;DHT22;578;48.408;10.004;2023-02-15T01:38:29;-0.10;99.90
1179;DHT22;578;48.408;10.004;2023-02-15T01:40:57;-0.10;99.90
1179;DHT22;578;48.408;10.004;2023-02-15T01:43:47;-0.10;99.90
1179;DHT22;578;48.408;10.004;2023-02-15T01:46:16;-0.20;99.90
1179;DHT22;578;48.408;10.004;2023-02-15T01:48:46;-0.20;99.90
1179;DHT22;578;48.408;10.004;2023-02-15T01:51:14;-0.10;99.90
1179;DHT22;578;48.408;10.004;2023-02-15T01:53:47;-0.10;99.90
1179;DHT22;578;48.408;10.004;2023-02-15T01:56:19;-0.10;99.90
1179;DHT22;578;48.408;10.004;2023-02-15T01:58:47;-0.20;99.90
1179;DHT22;578;48.408;10.004;2023-02-15T02:01:15;-0.20;99.90
1179;DHT22;578;48.408;10.004;2023-02-15T02:03:56;-0.20;99.90
1179;DHT22;578;48.408;10.004;2023-02-15T02:06:26;-0.20;99.90
1179;DHT22;578;48.408;10.004;2023-02-15T02:08:53;-0.20;99.90
1179;DHT22;578;48.408;10.004;2023-02-15T02:11:22;-0.30;99.90
1179;DHT22;578;48.408;10.004;2023-02-15T02:13:50;-0.30;99.90
1179;DHT22;578;48.408;10.004;2023-02-15T02:16:21;-0.30;99.90
1179;DHT22;578;48.408;10.004;2023-02-15T02:19:09;-0.20;99.90
1179;DHT22;578;48.408;10.004;2023-02-15T02:22:07;-0.30;99.90
1179;DHT22;578;48.408;10.004;2023-02-15T02:25:02;-0.20;99.90
1179;DHT22;578;48.408;10.004;2023-02-15T02:27:37;-0.20;99.90
1179;DHT22;578;48.408;10.004;2023-02-15T02:30:27;-0.10;99.90
1179;DHT22;578;48.408;10.004;2023-02-15T02:33:19;-0.20;99.90
1179;DHT22;578;48.408;10.004;2023-02-15T02:35:57;-0.20;99.90
1179;DHT22;578;48.408;10.004;2023-02-15T02:38:32;-0.20;99.90
1179;DHT22;578;48.408;10.004;2023-02-15T02:41:08;-0.20;99.90
1179;DHT22;578;48.408;10.004;2023-02-15T02:43:43;-0.20;99.90
1179;DHT22;578;48.408;10.004;2023-02-15T02:46:17;-0.30;99.90
1179;DHT22;578;48.408;10.004;2023-02-15T02:48:48;-0.40;99.90
1179;DHT22;578;48.408;10.004;2023-02-15T02:51:15;-0.30;99.90
1179;DHT22;578;48.408;10.004;2023-02-15T02:53:48;-0.30;99.90
1179;DHT22;578;48.408;10.004;2023-02-15T02:56:21;-0.30;99.90
1179;DHT22;578;48.408;10.004;2023-02-15T02:58:51;-0.20;99.90
1179;DHT22;578;48.408;10.004;2023-02-15T03:01:25;-0.20;99.90
1179;DHT22;578;48.408;10.004;2023-02-15T03:03:56;-0.30;99.90
1179;DHT22;578;48.408;10.004;2023-02-15T03:06:28;-0.30;99.90
1179;DHT22;578;48.408;10.004;2023-02-15T03:09:01;-0.20;99.90
1179;DHT22;578;48.408;10.004;2023-02-15T03:11:30;-0.20;99.90
1179;DHT22;578;48.408;10.004;2023-02-15T03:13:57;-0.30;99.90
1179;DHT22;578;48.408;10.004;2023-02-15T03:16:24;-0.30;99.90
1179;DHT22;578;48.408;10.004;2023-02-15T03:18:55;-0.30;99.90
1179;DHT22;578;48.408;10.004;2023-02-15T03:21:28;-0.20;99.90
1179;DHT22;578;48.408;10.004;2023-02-15T03:24:01;-0.20;99.90
1179;DHT22;578;48.408;10.004;2023-02-15T03:26:30;-0.10;99.90
1179;DHT22;578;48.408;10.004;2023-02-15T03:28:59;-0.10;99.90
1179;DHT22;578;48.408;10.004;2023-02-15T03:31:28;-0.10;99.90
1179;DHT22;578;48.408;10.004;2023-02-15T03:34:01;-0.10;99.90
1179;DHT22;578;48.408;10.004;2023-02-15T03:36:33;-0.20;99.90
1179;DHT22;578;48.408;10.004;2023-02-15T03:39:09;-0.30;99.90
1179;DHT22;578;48.408;10.004;2023-02-15T03:41:40;-0.20;99.90
1179;DHT22;578;48.408;10.004;2023-02-15T03:44:12;-0.20;99.90
1179;DHT22;578;48.408;10.004;2023-02-15T03:46:43;-0.20;99.90
1179;DHT22;578;48.408;10.004;2023-02-15T03:49:17;-0.20;99.90
1179;DHT22;578;48.408;10.004;2023-02-15T03:51:48;-0.30;99.90
1179;DHT22;578;48.408;10.004;2023-02-15T03:54:19;-0.30;99.90
1179;DHT22;578;48.408;10.004;2023-02-15T03:57:01;-0.30;99.90
1179;DHT22;578;48.408;10.004;2023-02-15T03:59:42;-0.10;99.90
1179;DHT22;578;48.408;10.004;2023-02-15T04:02:30;-0.30;99.90
1179;DHT22;578;48.408;10.004;2023-02-15T04:05:03;-0.30;99.90
1179;DHT22;578;48.408;10.004;2023-02-15T04:07:29;-0.10;99.90
1179;DHT22;578;48.408;10.004;2023-02-15T04:09:56;-0.10;99.90
1179;DHT22;578;48.408;10.004;2023-02-15T04:12:40;-0.10;99.90
1179;DHT22;578;48.408;10.004;2023-02-15T04:15:08;-0.20;99.90
1179;DHT22;578;48.408;10.004;2023-02-15T04:17:58;-0.10;99.90
1179;DHT22;578;48.408;10.004;2023-02-15T04:20:26;-0.10;99.90
1179;DHT22;578;48.408;10.004;2023-02-15T04:23:10;-0.10;99.90
1179;DHT22;578;48.408;10.004;2023-02-15T04:25:54;-0.20;99.90
1179;DHT22;578;48.408;10.004;2023-02-15T04:28:21;-0.10;99.90
1179;DHT22;578;48.408;10.004;2023-02-15T04:30:47;-0.20;99.90
1179;DHT22;578;48.408;10.004;2023-02-15T04:33:14;-0.20;99.90
1179;DHT22;578;48.408;10.004;2023-02-15T04:35:43;-0.10;99.90
1179;DHT22;578;48.408;10.004;2023-02-15T04:38:11;-0.10;99.90
1179;DHT22;578;48.408;10.004;2023-02-15T04:40:37;-0.10;99.90
1179;DHT22;578;48.408;10.004;2023-02-15T04:43:04;-0.10;99.90
1179;DHT22;578;48.408;10.004;2023-02-15T04:45:31;-0.20;99.90
1179;DHT22;578;48.408;10.004;2023-02-15T04:47:57;-0.20;99.90
1179;DHT22;578;48.408;10.004;2023-02-15T04:50:24;-0.10;99.90
1179;DHT22;578;48.408;10.004;2023-02-15T04:52:52;-0.10;99.90
1179;DHT22;578;48.408;10.004;2023-02-15T04:55:19;-0.10;99.90
1179;DHT22;578;48.408;10.004;2023-02-15T04:57:46;-0.10;99.90
1179;DHT22;578;48.408;10.004;2023-02-15T05:00:13;-0.10;99.90
1179;DHT22;578;48.408;10.004;2023-02-15T05:02:40;-0.10;99.90
1179;DHT22;578;48.408;10.004;2023-02-15T05:05:07;-0.10;99.90
1179;DHT22;578;48.408;10.004;2023-02-15T05:07:34;-0.20;99.90
1179;DHT22;578;48.408;10.004;2023-02-15T05:10:03;-0.20;99.90
1179;DHT22;578;48.408;10.004;2023-02-15T05:12:30;-0.40;99.90
1179;DHT22;578;48.408;10.004;2023-02-15T05:14:56;-0.30;99.90
1179;DHT22;578;48.408;10.004;2023-02-15T05:17:23;-0.30;99.90
1179;DHT22;578;48.408;10.004;2023-02-15T05:19:50;-0.40;99.90
1179;DHT22;578;48.408;10.004;2023-02-15T05:22:17;-0.30;99.90
1179;DHT22;578;48.408;10.004;2023-02-15T05:24:43;-0.30;99.90
1179;DHT22;578;48.408;10.004;2023-02-15T05:27:29;-0.30;99.90
1179;DHT22;578;48.408;10.004;2023-02-15T05:30:13;-0.40;99.90
1179;DHT22;578;48.408;10.004;2023-02-15T05:32:40;-0.40;99.90
1179;DHT22;578;48.408;10.004;2023-02-15T05:35:07;-0.50;99.90
1179;DHT22;578;48.408;10.004;2023-02-15T05:37:34;-0.50;99.90
1179;DHT22;578;48.408;10.004;2023-02-15T05:40:00;-0.50;99.90
1179;DHT22;578;48.408;10.004;2023-02-15T05:42:28;-0.40;99.90
1179;DHT22;578;48.408;10.004;2023-02-15T05:44:55;-0.50;99.90
1179;DHT22;578;48.408;10.004;2023-02-15T05:47:22;-0.40;99.90
1179;DHT22;578;48.408;10.004;2023-02-15T05:49:48;-0.50;99.90
1179;DHT22;578;48.408;10.004;2023-02-15T05:52:15;-0.50;99.90
1179;DHT22;578;48.408;10.004;2023-02-15T05:54:42;-0.50;99.90
1179;DHT22;578;48.408;10.004;2023-02-15T05:57:08;-0.40;99.90
1179;DHT22;578;48.408;10.004;2023-02-15T05:59:36;-0.40;99.90
1179;DHT22;578;48.408;10.004;2023-02-15T06:02:03;-0.50;99.90
1179;DHT22;578;48.408;10.004;2023-02-15T06:04:31;-0.50;99.90
1179;DHT22;578;48.408;10.004;2023-02-15T06:06:58;-0.50;99.90
1179;DHT22;578;48.408;10.004;2023-02-15T06:09:25;-0.40;99.90
1179;DHT22;578;48.408;10.004;2023-02-15T06:11:51;-0.30;99.90
1179;DHT22;578;48.408;10.004;2023-02-15T06:14:18;-0.30;99.90
1179;DHT22;578;48.408;10.004;2023-02-15T06:16:46;-0.30;99.90
1179;DHT22;578;48.408;10.004;2023-02-15T06:19:13;-0.30;99.90
1179;DHT22;578;48.408;10.004;2023-02-15T06:21:39;-0.30;99.90
1179;DHT22;578;48.408;10.004;2023-02-15T06:24:08;-0.30;99.90
1179;DHT22;578;48.408;10.004;2023-02-15T06:26:34;-0.20;99.90
1179;DHT22;578;48.408;10.004;2023-02-15T06:29:01;-0.30;99.90
1179;DHT22;578;48.408;10.004;2023-02-15T06:31:28;-0.30;99.90
1179;DHT22;578;48.408;10.004;2023-02-15T06:33:56;-0.30;99.90
1179;DHT22;578;48.408;10.004;2023-02-15T06:36:26;-0.30;99.90
1179;DHT22;578;48.408;10.004;2023-02-15T06:38:53;-0.40;99.90
1179;DHT22;578;48.408;10.004;2023-02-15T06:41:19;-0.30;99.90
1179;DHT22;578;48.408;10.004;2023-02-15T06:43:46;-0.40;99.90
1179;DHT22;578;48.408;10.004;2023-02-15T06:46:13;-0.40;99.90
1179;DHT22;578;48.408;10.004;2023-02-15T06:48:39;-0.40;99.90
1179;DHT22;578;48.408;10.004;2023-02-15T06:51:07;-0.40;99.90
1179;DHT22;578;48.408;10.004;2023-02-15T06:53:34;-0.50;99.90
1179;DHT22;578;48.408;10.004;2023-02-15T06:56:01;-0.40;99.90
1179;DHT22;578;48.408;10.004;2023-02-15T06:58:31;-0.30;99.90
1179;DHT22;578;48.408;10.004;2023-02-15T07:00:58;-0.30;99.90
1179;DHT22;578;48.408;10.004;2023-02-15T07:03:25;-0.20;99.90
1179;DHT22;578;48.408;10.004;2023-02-15T07:05:54;-0.30;99.90
1179;DHT22;578;48.408;10.004;2023-02-15T07:08:22;-0.30;99.90
1179;DHT22;578;48.408;10.004;2023-02-15T07:10:49;-0.30;99.90
1179;DHT22;578;48.408;10.004;2023-02-15T07:13:16;-0.50;99.90
1179;DHT22;578;48.408;10.004;2023-02-15T07:15:42;-0.60;99.90
1179;DHT22;578;48.408;10.004;2023-02-15T07:18:08;-0.70;99.90
1179;DHT22;578;48.408;10.004;2023-02-15T07:20:36;-0.60;99.90
1179;DHT22;578;48.408;10.004;2023-02-15T07:23:04;-0.60;99.90
1179;DHT22;578;48.408;10.004;2023-02-15T07:25:32;-0.60;99.90
1179;DHT22;578;48.408;10.004;2023-02-15T07:27:59;-0.60;99.90
1179;DHT22;578;48.408;10.004;2023-02-15T07:30:27;-0.50;99.90
1179;DHT22;578;48.408;10.004;2023-02-15T07:32:55;-0.50;99.90
1179;DHT22;578;48.408;10.004;2023-02-15T07:35:46;-0.40;99.90
1179;DHT22;578;48.408;10.004;2023-02-15T07:38:13;-0.40;99.90
1179;DHT22;578;48.408;10.004;2023-02-15T07:40:41;-0.40;99.90
1179;DHT22;578;48.408;10.004;2023-02-15T07:43:08;-0.30;99.90
1179;DHT22;578;48.408;10.004;2023-02-15T07:45:34;-0.20;99.90
1179;DHT22;578;48.408;10.004;2023-02-15T07:48:02;-0.20;99.90
1179;DHT22;578;48.408;10.004;2023-02-15T07:50:28;-0.20;99.90
1179;DHT22;578;48.408;10.004;2023-02-15T07:52:55;-0.10;99.90
1179;DHT22;578;48.408;10.004;2023-02-15T07:55:22;-0.30;99.90
1179;DHT22;578;48.408;10.004;2023-02-15T07:57:51;-0.20;99.90
1179;DHT22;578;48.408;10.004;2023-02-15T08:00:20;-0.10;99.90
1179;DHT22;578;48.408;10.004;2023-02-15T08:02:51;-0.20;99.90
1179;DHT22;578;48.408;10.004;2023-02-15T08:05:38;0.10;99.90
1179;DHT22;578;48.408;10.004;2023-02-15T08:08:06;0.20;99.90
1179;DHT22;578;48.408;10.004;2023-02-15T08:10:33;0.30;99.90
1179;DHT22;578;48.408;10.004;2023-02-15T08:13:19;0.40;99.90
1179;DHT22;578;48.408;10.004;2023-02-15T08:15:48;0.50;99.90
1179;DHT22;578;48.408;10.004;2023-02-15T08:18:15;0.50;99.90
1179;DHT22;578;48.408;10.004;2023-02-15T08:20:42;0.10;99.90
1179;DHT22;578;48.408;10.004;2023-02-15T08:23:09;0.30;99.90
1179;DHT22;578;48.408;10.004;2023-02-15T08:25:36;0.40;99.90
1179;DHT22;578;48.408;10.004;2023-02-15T08:28:03;0.30;99.90
1179;DHT22;578;48.408;10.004;2023-02-15T08:30:31;0.20;99.90
1179;DHT22;578;48.408;10.004;2023-02-15T08:32:58;0.20;99.90
1179;DHT22;578;48.408;10.004;2023-02-15T08:35:25;0.00;99.90
1179;DHT22;578;48.408;10.004;2023-02-15T08:37:52;0.20;99.90
1179;DHT22;578;48.408;10.004;2023-02-15T08:40:19;0.20;99.90
1179;DHT22;578;48.408;10.004;2023-02-15T08:42:46;0.20;99.90
1179;DHT22;578;48.408;10.004;2023-02-15T08:45:13;0.20;99.90
1179;DHT22;578;48.408;10.004;2023-02-15T08:47:41;0.40;99.90
1179;DHT22;578;48.408;10.004;2023-02-15T08:50:09;0.60;99.90
1179;DHT22;578;48.408;10.004;2023-02-15T08:52:35;0.60;99.90
1179;DHT22;578;48.408;10.004;2023-02-15T08:55:03;0.70;99.90
1179;DHT22;578;48.408;10.004;2023-02-15T08:57:30;0.60;99.90
1179;DHT22;578;48.408;10.004;2023-02-15T08:59:57;0.70;99.90
1179;DHT22;578;48.408;10.004;2023-02-15T09:02:24;0.80;99.90
1179;DHT22;578;48.408;10.004;2023-02-15T09:04:52;0.90;99.90
1179;DHT22;578;48.408;10.004;2023-02-15T09:07:19;0.90;99.90
1179;DHT22;578;48.408;10.004;2023-02-15T09:09:46;1.00;99.90
1179;DHT22;578;48.408;10.004;2023-02-15T09:12:13;0.90;99.90
1179;DHT22;578;48.408;10.004;2023-02-15T09:14:40;0.80;99.90
1179;DHT22;578;48.408;10.004;2023-02-15T09:17:06;0.90;99.90
1179;DHT22;578;48.408;10.004;2023-02-15T09:19:33;1.00;99.90
1179;DHT22;578;48.408;10.004;2023-02-15T09:22:02;1.00;99.90
1179;DHT22;578;48.408;10.004;2023-02-15T09:24:32;0.60;99.90
1179;DHT22;578;48.408;10.004;2023-02-15T09:26:59;0.90;99.90
1179;DHT22;578;48.408;10.004;2023-02-15T09:29:26;1.00;99.90
1179;DHT22;578;48.408;10.004;2023-02-15T09:31:53;1.00;99.90
1179;DHT22;578;48.408;10.004;2023-02-15T09:34:21;1.00;99.90
1179;DHT22;578;48.408;10.004;2023-02-15T09:36:48;0.90;99.90
1179;DHT22;578;48.408;10.004;2023-02-15T09:39:19;1.20;99.90
1179;DHT22;578;48.408;10.004;2023-02-15T09:45:16;1.10;99.90
1179;DHT22;578;48.408;10.004;2023-02-15T09:51:06;1.20;99.90
1179;DHT22;578;48.408;10.004;2023-02-15T09:53:47;1.40;99.90
1179;DHT22;578;48.408;10.004;2023-02-15T09:56:26;1.50;99.90
1179;DHT22;578;48.408;10.004;2023-02-15T09:59:02;1.50;99.90
1179;DHT22;578;48.408;10.004;2023-02-15T10:01:39;1.30;99.90
1179;DHT22;578;48.408;10.004;2023-02-15T10:04:31;1.60;99.90
1179;DHT22;578;48.408;10.004;2023-02-15T10:07:12;1.40;99.90
1179;DHT22;578;48.408;10.004;2023-02-15T10:10:05;0.80;99.90
1179;DHT22;578;48.408;10.004;2023-02-15T10:12:53;1.00;99.90
1179;DHT22;578;48.408;10.004;2023-02-15T10:15:31;1.10;99.90
1179;DHT22;578;48.408;10.004;2023-02-15T10:18:10;1.20;99.90
1179;DHT22;578;48.408;10.004;2023-02-15T10:20:49;1.00;99.90
1179;DHT22;578;48.408;10.004;2023-02-15T10:23:47;1.10;99.90
1179;DHT22;578;48.408;10.004;2023-02-15T10:26:18;1.30;99.90
1179;DHT22;578;48.408;10.004;2023-02-15T10:28:49;1.50;99.90
1179;DHT22;578;48.408;10.004;2023-02-15T10:31:23;1.70;99.90
1179;DHT22;578;48.408;10.004;2023-02-15T10:34:03;1.80;99.90
1179;DHT22;578;48.408;10.004;2023-02-15T10:36:53;1.80;99.90
1179;DHT22;578;48.408;10.004;2023-02-15T10:39:29;1.80;99.90
1179;DHT22;578;48.408;10.004;2023-02-15T10:42:05;1.50;99.90
1179;DHT22;578;48.408;10.004;2023-02-15T10:44:51;1.70;99.90
1179;DHT22;578;48.408;10.004;2023-02-15T10:47:32;1.70;99.90
1179;DHT22;578;48.408;10.004;2023-02-15T10:50:15;2.20;99.90
1179;DHT22;578;48.408;10.004;2023-02-15T10:52:51;1.90;99.90
1179;DHT22;578;48.408;10.004;2023-02-15T10:55:34;2.10;99.90
1179;DHT22;578;48.408;10.004;2023-02-15T10:58:11;1.60;99.90
1179;DHT22;578;48.408;10.004;2023-02-15T11:00:45;2.30;99.90
1179;DHT22;578;48.408;10.004;2023-02-15T11:03:31;2.70;99.90
1179;DHT22;578;48.408;10.004;2023-02-15T11:06:05;2.50;99.90
1179;DHT22;578;48.408;10.004;2023-02-15T11:08:38;2.20;99.90
1179;DHT22;578;48.408;10.004;2023-02-15T11:11:08;2.50;99.90
1179;DHT22;578;48.408;10.004;2023-02-15T11:13:39;2.50;99.90
1179;DHT22;578;48.408;10.004;2023-02-15T11:16:11;2.70;99.90
1179;DHT22;578;48.408;10.004;2023-02-15T11:18:43;2.50;99.90
1179;DHT22;578;48.408;10.004;2023-02-15T11:21:17;2.70;99.90
1179;DHT22;578;48.408;10.004;2023-02-15T11:23:46;2.60;99.90
1179;DHT22;578;48.408;10.004;2023-02-15T11:26:17;2.70;99.90
1179;DHT22;578;48.408;10.004;2023-02-15T11:28:50;2.70;99.90
1179;DHT22;578;48.408;10.004;2023-02-15T11:31:22;2.50;99.90
1179;DHT22;578;48.408;10.004;2023-02-15T11:33:52;2.50;99.90
1179;DHT22;578;48.408;10.004;2023-02-15T11:36:22;3.20;99.90
1179;DHT22;578;48.408;10.004;2023-02-15T11:38:54;3.20;99.90
1179;DHT22;578;48.408;10.004;2023-02-15T11:41:25;3.40;99.90
1179;DHT22;578;48.408;10.004;2023-02-15T11:43:57;3.30;99.90
1179;DHT22;578;48.408;10.004;2023-02-15T11:46:26;3.20;99.90
1179;DHT22;578;48.408;10.004;2023-02-15T11:48:54;3.50;99.90
1179;DHT22;578;48.408;10.004;2023-02-15T11:51:22;3.10;99.90
1179;DHT22;578;48.408;10.004;2023-02-15T11:53:50;3.50;99.90
1179;DHT22;578;48.408;10.004;2023-02-15T11:56:18;3.70;99.90
1179;DHT22;578;48.408;10.004;2023-02-15T11:58:49;2.80;99.90
1179;DHT22;578;48.408;10.004;2023-02-15T12:01:21;3.80;99.90
1179;DHT22;578;48.408;10.004;2023-02-15T12:03:52;3.30;99.90
1179;DHT22;578;48.408;10.004;2023-02-15T12:06:24;3.30;99.90
1179;DHT22;578;48.408;10.004;2023-02-15T12:08:59;3.30;99.90
1179;DHT22;578;48.408;10.004;2023-02-15T12:11:32;3.30;99.90
1179;DHT22;578;48.408;10.004;2023-02-15T12:14:02;3.30;99.90
1179;DHT22;578;48.408;10.004;2023-02-15T12:16:33;3.40;99.90
1179;DHT22;578;48.408;10.004;2023-02-15T12:19:03;3.50;99.90
1179;DHT22;578;48.408;10.004;2023-02-15T12:21:32;3.20;99.90
1179;DHT22;578;48.408;10.004;2023-02-15T12:24:03;3.30;99.90
1179;DHT22;578;48.408;10.004;2023-02-15T12:26:35;3.30;99.90
1179;DHT22;578;48.408;10.004;2023-02-15T12:29:12;3.60;99.90
1179;DHT22;578;48.408;10.004;2023-02-15T12:31:40;3.80;99.90
1179;DHT22;578;48.408;10.004;2023-02-15T12:34:13;3.70;99.90
1179;DHT22;578;48.408;10.004;2023-02-15T12:36:48;3.70;99.90
1179;DHT22;578;48.408;10.004;2023-02-15T12:39:19;3.70;99.90
1179;DHT22;578;48.408;10.004;2023-02-15T12:41:57;3.70;99.90
1179;DHT22;578;48.408;10.004;2023-02-15T12:44:26;3.80;99.90
1179;DHT22;578;48.408;10.004;2023-02-15T12:46:59;3.80;99.90
1179;DHT22;578;48.408;10.004;2023-02-15T12:49:29;4.00;99.90
1179;DHT22;578;48.408;10.004;2023-02-15T12:51:57;4.10;99.90
1179;DHT22;578;48.408;10.004;2023-02-15T12:54:33;4.20;99.90
1179;DHT22;578;48.408;10.004;2023-02-15T12:57:23;4.50;99.90
1179;DHT22;578;48.408;10.004;2023-02-15T12:59:53;4.30;99.90
1179;DHT22;578;48.408;10.004;2023-02-15T13:02:27;4.60;99.90
1179;DHT22;578;48.408;10.004;2023-02-15T13:04:57;4.80;99.90
1179;DHT22;578;48.408;10.004;2023-02-15T13:07:30;5.00;99.90
1179;DHT22;578;48.408;10.004;2023-02-15T13:09:58;5.00;99.90
1179;DHT22;578;48.408;10.004;2023-02-15T13:12:27;5.00;99.90
1179;DHT22;578;48.408;10.004;2023-02-15T13:14:57;4.90;99.90
1179;DHT22;578;48.408;10.004;2023-02-15T13:17:26;5.20;99.90
1179;DHT22;578;48.408;10.004;2023-02-15T13:19:59;5.50;99.90
1179;DHT22;578;48.408;10.004;2023-02-15T13:22:33;5.60;99.90
1179;DHT22;578;48.408;10.004;2023-02-15T13:25:04;5.50;99.90
1179;DHT22;578;48.408;10.004;2023-02-15T13:27:38;5.80;99.90
1179;DHT22;578;48.408;10.004;2023-02-15T13:30:17;5.90;99.90
1179;DHT22;578;48.408;10.004;2023-02-15T13:32:49;6.00;99.90
1179;DHT22;578;48.408;10.004;2023-02-15T13:35:18;5.90;99.90
1179;DHT22;578;48.408;10.004;2023-02-15T13:40:51;6.00;99.90
1179;DHT22;578;48.408;10.004;2023-02-15T13:43:27;6.10;99.90
1179;DHT22;578;48.408;10.004;2023-02-15T13:46:10;6.20;99.90
1179;DHT22;578;48.408;10.004;2023-02-15T13:48:46;6.20;99.90
1179;DHT22;578;48.408;10.004;2023-02-15T13:51:21;6.30;99.90
1179;DHT22;578;48.408;10.004;2023-02-15T13:54:05;6.30;99.90
1179;DHT22;578;48.408;10.004;2023-02-15T13:56:45;6.40;99.90
1179;DHT22;578;48.408;10.004;2023-02-15T13:59:28;6.50;99.90
1179;DHT22;578;48.408;10.004;2023-02-15T14:02:06;6.50;99.90
1179;DHT22;578;48.408;10.004;2023-02-15T14:04:53;6.60;99.90
1179;DHT22;578;48.408;10.004;2023-02-15T14:07:38;6.90;99.90
1179;DHT22;578;48.408;10.004;2023-02-15T14:10:35;6.90;99.90
1179;DHT22;578;48.408;10.004;2023-02-15T14:16:00;6.90;99.90
1179;DHT22;578;48.408;10.004;2023-02-15T14:18:35;6.90;99.90
1179;DHT22;578;48.408;10.004;2023-02-15T14:21:08;6.90;99.90
1179;DHT22;578;48.408;10.004;2023-02-15T14:23:55;7.00;99.90
1179;DHT22;578;48.408;10.004;2023-02-15T14:26:29;7.10;99.90
1179;DHT22;578;48.408;10.004;2023-02-15T14:29:07;7.10;99.90
1179;DHT22;578;48.408;10.004;2023-02-15T14:31:39;7.10;99.90
1179;DHT22;578;48.408;10.004;2023-02-15T14:34:19;7.20;99.90
1179;DHT22;578;48.408;10.004;2023-02-15T14:36:48;7.40;99.90
1179;DHT22;578;48.408;10.004;2023-02-15T14:39:26;7.40;99.90
1179;DHT22;578;48.408;10.004;2023-02-15T14:42:17;7.50;99.90
1179;DHT22;578;48.408;10.004;2023-02-15T14:44:48;7.50;99.90
1179;DHT22;578;48.408;10.004;2023-02-15T14:47:21;7.30;99.90
1179;DHT22;578;48.408;10.004;2023-02-15T14:49:49;7.30;99.90
1179;DHT22;578;48.408;10.004;2023-02-15T14:52:16;7.50;99.90
1179;DHT22;578;48.408;10.004;2023-02-15T14:54:57;7.40;99.90
1179;DHT22;578;48.408;10.004;2023-02-15T14:57:34;7.30;99.90
1179;DHT22;578;48.408;10.004;2023-02-15T15:00:30;7.40;99.90
1179;DHT22;578;48.408;10.004;2023-02-15T15:02:57;7.40;99.90
1179;DHT22;578;48.408;10.004;2023-02-15T15:05:29;7.50;99.90
1179;DHT22;578;48.408;10.004;2023-02-15T15:08:02;7.50;99.90
1179;DHT22;578;48.408;10.004;2023-02-15T15:10:39;7.50;99.90
1179;DHT22;578;48.408;10.004;2023-02-15T15:13:38;7.50;99.90
1179;DHT22;578;48.408;10.004;2023-02-15T15:16:27;7.50;99.90
1179;DHT22;578;48.408;10.004;2023-02-15T15:18:55;7.60;99.90
1179;DHT22;578;48.408;10.004;2023-02-15T15:24:45;7.50;99.90
1179;DHT22;578;48.408;10.004;2023-02-15T15:27:49;7.60;99.90
1179;DHT22;578;48.408;10.004;2023-02-15T15:33:42;7.40;99.90
1179;DHT22;578;48.408;10.004;2023-02-15T15:39:24;7.50;99.90
1179;DHT22;578;48.408;10.004;2023-02-15T15:42:01;7.40;99.90
1179;DHT22;578;48.408;10.004;2023-02-15T15:44:58;7.40;99.90
1179;DHT22;578;48.408;10.004;2023-02-15T15:47:41;7.30;99.90
1179;DHT22;578;48.408;10.004;2023-02-15T15:50:14;7.30;99.90
1179;DHT22;578;48.408;10.004;2023-02-15T15:52:47;6.90;99.90
1179;DHT22;578;48.408;10.004;2023-02-15T15:55:17;6.80;99.90
1179;DHT22;578;48.408;10.004;2023-02-15T15:57:46;6.70;99.90
1179;DHT22;578;48.408;10.004;2023-02-15T16:00:31;6.40;99.90
1179;DHT22;578;48.408;10.004;2023-02-15T16:03:00;6.30;99.90
1179;DHT22;578;48.408;10.004;2023-02-15T16:05:26;6.20;99.90
1179;DHT22;578;48.408;10.004;2023-02-15T16:07:53;6.20;99.90
1179;DHT22;578;48.408;10.004;2023-02-15T16:10:23;6.00;99.90
1179;DHT22;578;48.408;10.004;2023-02-15T16:12:51;5.90;99.90
1179;DHT22;578;48.408;10.004;2023-02-15T16:15:20;5.80;99.90
1179;DHT22;578;48.408;10.004;2023-02-15T16:17:52;5.60;99.90
1179;DHT22;578;48.408;10.004;2023-02-15T16:20:27;5.50;99.90
1179;DHT22;578;48.408;10.004;2023-02-15T16:23:03;5.40;99.90
1179;DHT22;578;48.408;10.004;2023-02-15T16:25:41;5.10;99.90
1179;DHT22;578;48.408;10.004;2023-02-15T16:28:12;4.90;99.90
1179;DHT22;578;48.408;10.004;2023-02-15T16:30:39;4.70;99.90
1179;DHT22;578;48.408;10.004;2023-02-15T16:33:10;4.70;99.90
1179;DHT22;578;48.408;10.004;2023-02-15T16:35:40;4.50;99.90
1179;DHT22;578;48.408;10.004;2023-02-15T16:38:10;4.50;99.90
1179;DHT22;578;48.408;10.004;2023-02-15T16:40:48;4.20;99.90
1179;DHT22;578;48.408;10.004;2023-02-15T16:43:18;4.40;99.90
1179;DHT22;578;48.408;10.004;2023-02-15T16:45:47;4.10;99.90
1179;DHT22;578;48.408;10.004;2023-02-15T16:48:19;3.90;99.90
1179;DHT22;578;48.408;10.004;2023-02-15T16:50:50;3.80;99.90
1179;DHT22;578;48.408;10.004;2023-02-15T16:53:20;3.70;99.90
1179;DHT22;578;48.408;10.004;2023-02-15T16:55:51;3.60;99.90
1179;DHT22;578;48.408;10.004;2023-02-15T16:58:29;3.50;99.90
1179;DHT22;578;48.408;10.004;2023-02-15T17:01:02;3.40;99.90
1179;DHT22;578;48.408;10.004;2023-02-15T17:03:30;3.20;99.90